Latest Weather Observations for Delamere

IDD60801

Issued at 11:01 am CST Wednesday 27 July 2016 (issued every 30 minutes, with the page automatically refreshed every 10 minutes)

About weather observations | Map of weather stations | Latest weather observations for NT | Other Formats
Station Details ID: 014949 Name: DELAMERE WEAPONS RANGE Lat: -15.74 Lon: 131.92 Height: 221.0 m
Data from the previous 72 hours. | See also: Recent months at Delamere
Date/Time
CST
Temp
°C
App
Temp
°C
Dew
Point
°C
Rel
Hum
%
Delta-T
°C
Wind Press
QNH
hPa
Press
MSL
hPa
Rain since
9am
mm
Dir  Spd
km/h
Gust
km/h
Spd
kts
Gust
kts
27/11:00am 25.1 19.7 4.3 26 10.5 ESE 22 39 12 21 1018.1 - 0.0
27/10:30am 23.7 18.1 3.6 27 9.9 ESE 22 35 12 19 1018.5 - 0.0
27/10:00am 23.3 17.8 3.8 28 9.6 ESE 22 32 12 17 1018.6 - 0.0
27/09:30am 21.6 16.3 2.8 29 9.0 ESE 20 32 11 17 1018.6 - 0.0
27/09:00am 20.5 15.2 2.8 31 8.4 ESE 20 28 11 15 1018.5 1017.9 0.0
27/08:30am 19.4 14.0 2.3 32 8.0 ESE 20 32 11 17 1018.4 - 0.0
27/08:00am 18.5 13.7 2.4 34 7.5 ESE 17 26 9 14 1018.0 - 0.0
27/07:30am 17.9 13.5 2.6 36 7.1 ESE 15 24 8 13 1017.6 - 0.0
27/07:00am 17.9 13.1 2.6 36 7.1 ESE 17 26 9 14 1017.2 - 0.0
27/06:30am 18.2 13.9 3.3 37 7.0 ESE 15 24 8 13 1016.9 - 0.0
27/06:00am 18.1 14.2 3.6 38 6.9 ESE 13 19 7 10 1016.7 1016.0 0.0
27/05:30am 18.6 14.4 3.6 37 7.1 SE 15 22 8 12 1016.4 - 0.0
27/05:00am 18.8 15.4 3.8 37 7.2 ESE 11 15 6 8 1016.3 - 0.0
27/04:30am 19.2 15.8 4.2 37 7.2 ESE 11 17 6 9 1016.3 - 0.0
27/04:00am 19.7 15.6 4.2 36 7.5 ESE 15 20 8 11 1016.2 - 0.0
27/03:30am 20.4 16.3 4.4 35 7.8 E 15 24 8 13 1016.0 - 0.0
27/03:00am 21.1 16.2 4.2 33 8.3 E 19 32 10 17 1015.8 1015.1 0.0
27/02:30am 21.8 16.8 4.4 32 8.6 ESE 20 30 11 16 1015.7 - 0.0
27/02:00am 22.0 17.6 5.0 33 8.5 SE 17 22 9 12 1015.6 - 0.0
27/01:30am 22.5 17.8 5.0 32 8.8 SE 19 28 10 15 1015.6 - 0.0
27/01:00am 22.5 18.2 5.4 33 8.6 SE 17 22 9 12 1015.5 - 0.0
27/12:30am 22.8 18.1 5.3 32 8.8 SE 19 26 10 14 1015.3 - 0.0
27/12:00am 23.3 18.6 5.2 31 9.2 SE 19 24 10 13 1015.3 1014.6 0.0
 
Date/Time
CST
Temp
°C
App
Temp
°C
Dew
Point
°C
Rel
Hum
%
Delta-T
°C
Wind Press
QNH
hPa
Press
MSL
hPa
Rain since
9am
mm
Dir  Spd
km/h
Gust
km/h
Spd
kts
Gust
kts
26/11:30pm 23.9 19.2 5.3 30 9.5 SE 19 28 10 15 1015.4 - 0.0
26/11:00pm 24.0 19.2 4.9 29 9.7 SE 19 28 10 15 1015.5 - 0.0
26/10:30pm 23.9 20.4 5.3 30 9.5 SSE 13 28 7 15 1015.4 - 0.0
26/10:00pm 23.9 20.6 4.8 29 9.6 SSE 11 15 6 8 1015.2 - 0.0
26/09:30pm 24.0 21.1 4.4 28 9.8 SSE 9 13 5 7 1015.1 - 0.0
26/09:00pm 23.3 20.7 4.3 29 9.5 SSE 7 11 4 6 1014.9 1014.2 0.0
26/08:30pm 23.7 21.3 4.1 28 9.7 ESE 6 7 3 4 1014.6 - 0.0
26/08:00pm 25.7 23.4 4.8 26 10.7 ESE 6 7 3 4 1014.1 - 0.0
26/07:30pm 26.5 24.0 4.9 25 11.1 SE 7 11 4 6 1013.6 - 0.0
26/07:00pm 27.3 24.7 4.4 23 11.7 SE 7 9 4 5 1013.2 - 0.0
26/06:30pm 28.7 25.7 4.2 21 12.6 ESE 9 15 5 8 1012.6 - 0.0
26/06:00pm 30.2 26.8 4.0 19 13.6 ESE 11 17 6 9 1012.2 1011.5 0.0
26/05:30pm 30.7 26.5 3.7 18 13.9 ESE 15 20 8 11 1012.0 - 0.0
26/05:00pm 31.1 27.7 4.0 18 14.1 SE 11 19 6 10 1011.9 - 0.0
26/04:30pm 31.4 26.5 4.2 18 14.2 SE 19 24 10 13 1011.8 - 0.0
26/04:00pm 30.9 26.7 3.8 18 14.0 ESE 15 24 8 13 1011.9 - 0.0
26/03:30pm 31.4 26.5 4.2 18 14.2 E 19 30 10 16 1012.1 - 0.0
26/03:00pm 31.3 26.5 5.7 20 13.7 E 20 32 11 17 1012.4 1011.7 0.0
26/02:30pm 30.6 25.9 5.1 20 13.5 E 19 28 10 15 1012.9 - 0.0
26/02:00pm 30.8 27.5 6.6 22 13.1 E 13 20 7 11 1013.3 - 0.0
26/01:30pm 29.9 25.9 6.5 23 12.6 ESE 17 30 9 16 1013.8 - 0.0
26/01:00pm 29.9 25.6 7.2 24 12.4 NE 19 26 10 14 1014.4 - 0.0
26/12:30pm 28.6 24.2 7.2 26 11.6 NNE 20 24 11 13 1014.9 - 0.0
26/12:00pm 28.9 24.8 8.0 27 11.5 ENE 19 30 10 16 1015.5 1014.8 0.0
26/11:30am 28.0 23.4 8.3 29 10.8 E 22 30 12 16 1016.1 - 0.0
26/11:00am 26.6 22.8 9.0 33 9.7 ENE 19 28 10 15 1016.7 - 0.0
26/10:30am 25.3 22.1 8.3 34 9.2 E 15 24 8 13 1016.9 - 0.0
26/10:00am 24.2 20.6 6.9 33 9.1 E 15 20 8 11 1017.1 - 0.0
26/09:30am 22.8 19.1 6.1 34 8.6 E 15 20 8 11 1017.1 - 0.0
26/09:00am 21.6 17.8 5.9 36 8.0 E 15 24 8 13 1017.1 1016.5 0.0
26/08:30am 20.3 16.9 5.9 39 7.2 ESE 13 17 7 9 1016.9 - 0.0
26/08:00am 19.0 16.0 6.1 43 6.5 ESE 11 17 6 9 1016.6 - 0.0
26/07:30am 18.2 15.2 6.1 45 6.0 ESE 11 17 6 9 1016.3 - 0.0
26/07:00am 17.9 15.0 6.4 47 5.7 ESE 11 15 6 8 1016.0 - 0.0
26/06:30am 18.0 15.1 6.5 47 5.8 ESE 11 17 6 9 1015.6 - 0.0
26/06:00am 18.5 15.3 6.7 46 5.9 ESE 13 17 7 9 1015.6 1014.9 0.0
26/05:30am 18.9 16.1 7.0 46 6.1 ESE 11 17 6 9 1015.3 - 0.0
26/05:00am 18.9 16.1 7.0 46 6.1 ESE 11 15 6 8 1015.0 - 0.0
26/04:30am 18.9 16.5 7.0 46 6.1 SE 9 15 5 8 1014.9 - 0.0
26/04:00am 19.3 16.9 7.1 45 6.2 ESE 9 13 5 7 1014.7 - 0.0
26/03:30am 19.9 17.2 7.3 44 6.5 E 11 15 6 8 1014.6 - 0.0
26/03:00am 20.0 17.2 7.1 43 6.6 ESE 11 15 6 8 1014.6 1013.9 0.0
26/02:30am 20.6 17.5 7.2 42 6.9 ESE 13 17 7 9 1014.7 - 0.0
26/02:00am 20.7 17.9 7.0 41 7.1 ESE 11 15 6 8 1014.8 - 0.0
26/01:30am 21.3 18.5 6.8 39 7.5 E 11 15 6 8 1015.0 - 0.0
26/01:00am 21.7 18.8 6.4 37 7.8 ENE 11 17 6 9 1014.9 - 0.0
26/12:30am 22.6 19.4 6.8 36 8.2 SE 13 19 7 10 1014.6 - 0.0
26/12:00am 23.3 20.0 6.6 34 8.7 SE 13 19 7 10 1014.6 1013.9 0.0
 
Date/Time
CST
Temp
°C
App
Temp
°C
Dew
Point
°C
Rel
Hum
%
Delta-T
°C
Wind Press
QNH
hPa
Press
MSL
hPa
Rain since
9am
mm
Dir  Spd
km/h
Gust
km/h
Spd
kts
Gust
kts
25/11:30pm 24.0 20.0 6.7 33 9.0 SE 17 22 9 12 1014.5 - 0.0
25/11:00pm 24.4 20.4 6.6 32 9.3 SE 17 24 9 13 1014.4 - 0.0
25/10:30pm 25.1 21.5 6.8 31 9.6 SE 15 20 8 11 1014.2 - 0.0
25/10:00pm 25.2 22.4 6.9 31 9.7 SE 11 17 6 9 1014.0 - 0.0
25/09:30pm 25.0 22.7 7.6 33 9.3 E 9 11 5 6 1013.9 - 0.0
25/09:00pm 25.5 23.4 6.7 30 9.9 E 7 9 4 5 1013.5 1012.9 0.0
25/08:30pm 26.7 24.0 7.2 29 10.4 SE 11 15 6 8 1013.4 - 0.0
25/08:00pm 27.0 24.7 7.5 29 10.5 SE 9 11 5 6 1013.1 - 0.0
25/07:30pm 27.4 25.6 7.8 29 10.6 SE 7 11 4 6 1012.7 - 0.0
25/07:00pm 28.3 26.5 8.1 28 11.1 SE 7 9 4 5 1012.5 - 0.0
25/06:30pm 29.9 27.7 7.7 25 12.2 ESE 9 13 5 7 1012.3 - 0.0
25/06:00pm 31.1 27.7 7.5 23 13.0 ESE 15 20 8 11 1012.0 1011.3 0.0
25/05:30pm 31.7 28.4 8.0 23 13.2 E 15 24 8 13 1011.7 - 0.0
25/05:00pm 31.9 28.1 7.5 22 13.5 E 17 22 9 12 1011.5 - 0.0
25/04:30pm 31.6 28.3 7.9 23 13.2 ESE 15 24 8 13 1011.4 - 0.0
25/04:00pm 31.8 28.0 7.5 22 13.4 E 17 24 9 13 1011.6 - 0.0
25/03:30pm 32.5 28.4 8.7 23 13.5 SE 20 28 11 15 1011.8 - 0.0
25/03:00pm 32.0 28.4 8.3 23 13.3 E 17 28 9 15 1012.0 1011.3 0.0
25/02:30pm 31.6 28.1 8.6 24 12.9 E 17 30 9 16 1012.2 - 0.0
25/02:00pm 31.7 28.7 9.3 25 12.7 E 15 30 8 16 1012.7 - 0.0
25/01:30pm 31.0 27.1 8.7 25 12.5 ESE 19 30 10 16 1013.3 - 0.0
25/01:00pm 30.3 26.7 9.8 28 11.7 ESE 19 32 10 17 1013.9 - 0.0
25/12:30pm 29.8 26.7 10.4 30 11.1 ESE 17 24 9 13 1014.6 - 0.0
25/12:00pm 29.0 25.7 9.7 30 10.9 E 17 26 9 14 1015.2 1014.5 0.0
25/11:30am 29.2 25.7 10.3 31 10.8 ENE 19 26 10 14 1015.6 - 0.0
25/11:00am 27.7 24.3 9.0 31 10.4 ENE 17 26 9 14 1015.8 - 0.0
25/10:30am 26.5 22.9 8.5 32 9.8 E 17 24 9 13 1016.1 - 0.0
25/10:00am 25.8 21.9 8.8 34 9.3 E 19 24 10 13 1016.1 - 0.0
25/09:30am 24.5 20.6 8.5 36 8.7 E 19 26 10 14 1016.1 - 0.0
25/09:00am 23.4 20.4 9.4 41 7.6 E 15 20 8 11 1015.9 1015.2 0.0
25/08:30am 22.0 19.8 10.8 49 6.2 ESE 13 24 7 13 1015.7 - 0.0
25/08:00am 20.0 18.4 11.5 58 4.7 ESE 11 17 6 9 1015.4 - 0.0
25/07:30am 18.8 16.9 10.4 58 4.6 ESE 11 15 6 8 1015.1 - 0.0
25/07:00am 18.2 16.6 10.1 59 4.4 ESE 9 13 5 7 1014.7 - 0.0
25/06:30am 18.3 16.9 9.6 57 4.6 ESE 7 11 4 6 1014.5 - 0.0
25/06:00am 18.4 16.8 8.9 54 5.0 ESE 7 9 4 5 1014.1 1013.5 0.0
25/05:30am 18.5 16.8 8.5 52 5.2 E 7 9 4 5 1013.8 - 0.0
25/05:00am 18.9 17.2 8.3 50 5.5 E 7 9 4 5 1013.6 - 0.0
25/04:30am 19.4 17.6 7.8 47 6.0 ESE 7 9 4 5 1013.5 - 0.0
25/04:00am 20.2 18.5 8.2 46 6.3 ESE 7 11 4 6 1013.4 - 0.0
25/03:30am 20.3 18.6 8.3 46 6.3 E 7 9 4 5 1013.5 - 0.0
25/03:00am 21.0 19.3 8.3 44 6.7 E 7 9 4 5 1013.8 1013.2 0.0
25/02:30am 21.8 19.6 8.0 41 7.3 E 9 13 5 7 1013.9 - 0.0
25/02:00am 22.7 19.8 8.0 39 7.8 E 13 19 7 10 1014.1 - 0.0
25/01:30am 23.2 20.7 8.1 38 8.1 SE 11 15 6 8 1014.0 - 0.0
25/01:00am 23.9 21.0 8.3 37 8.4 SE 13 17 7 9 1013.9 - 0.0
25/12:30am 24.8 22.1 9.1 37 8.6 SE 13 17 7 9 1013.9 - 0.0
25/12:00am 25.4 22.1 9.7 37 8.7 SSE 17 22 9 12 1014.0 1013.4 0.0
 
Date/Time
CST
Temp
°C
App
Temp
°C
Dew
Point
°C
Rel
Hum
%
Delta-T
°C
Wind Press
QNH
hPa
Press
MSL
hPa
Rain since
9am
mm
Dir  Spd
km/h
Gust
km/h
Spd
kts
Gust
kts
24/11:30pm 25.9 23.6 10.5 38 8.7 SE 13 17 7 9 1013.8 - 0.0
24/11:00pm 25.4 24.1 11.2 41 8.1 ESE 9 11 5 6 1013.9 - 0.0
24/10:30pm 24.7 23.9 11.6 44 7.5 E 7 9 4 5 1013.9 - 0.0
24/10:00pm 25.1 24.4 11.3 42 7.9 NE 6 9 3 5 1013.8 - 0.0
24/09:30pm 26.1 25.1 11.1 39 8.6 SE 7 9 4 5 1013.6 - 0.0
24/09:00pm 27.3 26.4 11.3 37 9.2 SE 7 13 4 7 1013.5 1012.9 0.0
24/08:30pm 27.9 26.7 11.5 36 9.5 ESE 9 11 5 6 1013.1 - 0.0
24/08:00pm 27.9 27.0 11.5 36 9.5 SE 7 9 4 5 1012.7 - 0.0
24/07:30pm 28.5 27.7 11.1 34 10.0 ESE 6 7 3 4 1012.3 - 0.0
24/07:00pm 29.8 29.1 11.3 32 10.8 E 6 7 3 4 1011.8 - 0.0
24/06:30pm 30.8 29.9 11.2 30 11.4 E 7 11 4 6 1011.4 - 0.0
24/06:00pm 31.9 29.4 11.1 28 12.2 E 15 20 8 11 1011.1 1010.4 0.0
24/05:30pm 32.6 30.0 10.6 26 12.8 E 15 20 8 11 1010.8 - 0.0
24/05:00pm 32.8 29.8 10.8 26 12.9 E 17 22 9 12 1010.8 - 0.0
24/04:30pm 32.9 30.7 10.9 26 12.9 ESE 13 24 7 13 1010.7 - 0.0
24/04:00pm 33.1 30.6 11.0 26 13.0 E 15 28 8 15 1010.9 - 0.0
24/03:30pm 32.8 30.7 11.3 27 12.7 ENE 13 24 7 13 1011.1 - 0.0
24/03:00pm 32.8 30.9 11.9 28 12.4 E 13 26 7 14 1011.4 1010.7 0.0
24/02:30pm 32.4 30.6 12.1 29 12.1 E 13 26 7 14 1011.7 - 0.0
24/02:00pm 31.9 29.0 12.2 30 11.7 E 19 32 10 17 1012.2 - 0.0
24/01:30pm 31.6 28.4 11.9 30 11.7 SE 20 39 11 21 1012.9 - 0.0
24/01:00pm 31.8 28.8 12.6 31 11.5 E 20 32 11 17 1013.4 - 0.0
24/12:30pm 30.6 29.1 14.2 36 10.0 E 15 24 8 13 1014.1 - 0.0
24/12:00pm 29.8 28.0 14.4 39 9.4 ENE 17 22 9 12 1014.6 1013.9 0.0
24/11:30am 29.3 27.7 15.1 42 8.8 ENE 17 28 9 15 1015.1 - 0.0

Other Formats:

Comma delimited format used in spreadsheet applications
http://www.bom.gov.au/fwo/IDD60801/IDD60801.94225.axf

JavaScript Object Notation format (JSON) in row-major order
http://www.bom.gov.au/fwo/IDD60801/IDD60801.94225.json